Time,TemperatureF,DewpointF,PressureIn,WindDirection,WindDirectionDegrees,WindSpeedMPH,WindSpeedGustMPH,Humidity,HourlyPrecipIn,Conditions,Clouds,dailyrainin,SoftwareType,DateUTC
2013-05-13 00:00:00,55.3,53.0,29.99,East,85,1.0,2.0,92,0.00,,,0.26,Wunderground PWS Mod,2013-05-13 07:00:00,
2013-05-13 00:09:00,55.3,53.0,29.99,East,85,1.0,2.0,92,0.00,,,0.00,Wunderground PWS Mod,2013-05-13 07:09:00,
2013-05-13 00:19:00,55.1,52.8,29.99,East,85,0.0,2.0,92,0.00,,,0.00,Wunderground PWS Mod,2013-05-13 07:19:00,
2013-05-13 00:29:00,55.0,53.0,29.99,NNE,33,0.0,2.0,93,0.00,,,0.00,Wunderground PWS Mod,2013-05-13 07:29:00,
2013-05-13 00:39:00,54.8,52.8,29.99,NNE,33,0.0,2.0,93,0.00,,,0.01,Wunderground PWS Mod,2013-05-13 07:39:00,
2013-05-13 00:50:00,54.7,52.7,29.99,East,80,0.0,2.0,93,0.00,,,0.01,Wunderground PWS Mod,2013-05-13 07:50:00,
2013-05-13 01:00:00,54.7,52.7,29.99,East,90,0.0,2.0,93,0.01,,,0.01,Wunderground PWS Mod,2013-05-13 08:00:00,
2013-05-13 01:10:00,54.5,52.5,29.99,NE,34,0.0,1.0,93,0.00,,,0.01,Wunderground PWS Mod,2013-05-13 08:10:00,
2013-05-13 01:20:00,54.4,52.4,29.99,ESE,115,1.0,2.0,93,0.00,,,0.01,Wunderground PWS Mod,2013-05-13 08:20:00,
2013-05-13 01:30:00,54.2,52.2,29.99,ESE,115,0.0,2.0,93,0.00,,,0.02,Wunderground PWS Mod,2013-05-13 08:30:00,
2013-05-13 01:39:00,54.1,52.1,29.99,SE,146,1.0,2.0,93,0.00,,,0.02,Wunderground PWS Mod,2013-05-13 08:39:00,
2013-05-13 01:49:00,54.1,52.1,29.98,SE,146,1.0,2.0,93,0.00,,,0.02,Wunderground PWS Mod,2013-05-13 08:49:00,
2013-05-13 01:59:00,53.9,51.9,29.98,SE,146,0.0,2.0,93,0.00,,,0.02,Wunderground PWS Mod,2013-05-13 08:59:00,
2013-05-13 02:09:00,53.8,51.8,29.98,SE,146,0.0,2.0,93,0.00,,,0.02,Wunderground PWS Mod,2013-05-13 09:09:00,
2013-05-13 02:20:00,53.6,51.6,29.98,SE,146,0.0,1.0,93,0.00,,,0.02,Wunderground PWS Mod,2013-05-13 09:20:00,
2013-05-13 02:30:00,53.6,51.6,29.98,SE,135,0.0,2.0,93,0.01,,,0.02,Wunderground PWS Mod,2013-05-13 09:30:00,
2013-05-13 02:40:00,53.5,51.5,29.98,SE,146,0.0,2.0,93,0.00,,,0.02,Wunderground PWS Mod,2013-05-13 09:40:00,
2013-05-13 02:50:00,53.5,51.5,29.99,SE,146,0.0,1.0,93,0.00,,,0.02,Wunderground PWS Mod,2013-05-13 09:50:00,
2013-05-13 02:59:00,53.3,51.3,29.99,SE,146,0.0,1.0,93,0.00,,,0.02,Wunderground PWS Mod,2013-05-13 09:59:00,
2013-05-13 03:09:00,53.3,51.3,29.98,SE,146,0.0,1.0,93,0.00,,,0.02,Wunderground PWS Mod,2013-05-13 10:09:00,
2013-05-13 03:19:00,53.2,51.5,29.98,SE,146,0.0,1.0,94,0.00,,,0.02,Wunderground PWS Mod,2013-05-13 10:19:00,
2013-05-13 03:29:00,53.2,51.5,29.98,SE,146,0.0,2.0,94,0.00,,,0.02,Wunderground PWS Mod,2013-05-13 10:29:00,
2013-05-13 03:40:00,53.2,51.5,29.98,SE,146,0.0,1.0,94,0.00,,,0.02,Wunderground PWS Mod,2013-05-13 10:40:00,
2013-05-13 03:50:00,53.2,51.5,29.98,N/A,-737280,0.0,0.0,94,0.00,,,0.02,Wunderground PWS Mod,2013-05-13 10:50:00,
2013-05-13 04:00:00,53.3,51.6,29.97,SE,146,0.0,0.0,94,0.00,,,0.02,Wunderground PWS Mod,2013-05-13 11:00:00,
2013-05-13 04:10:00,53.3,51.6,29.97,SE,146,0.0,1.0,94,0.00,,,0.02,Wunderground PWS Mod,2013-05-13 11:10:00,
2013-05-13 04:20:00,53.5,51.8,29.96,SE,146,0.0,1.0,94,0.00,,,0.02,Wunderground PWS Mod,2013-05-13 11:20:00,
2013-05-13 04:30:00,53.5,51.8,29.96,SE,146,0.0,1.0,94,0.00,,,0.02,Wunderground PWS Mod,2013-05-13 11:30:00,
2013-05-13 04:39:00,53.5,51.8,29.95,SE,146,0.0,1.0,94,0.00,,,0.02,Wunderground PWS Mod,2013-05-13 11:39:00,
2013-05-13 04:50:00,53.6,51.9,29.96,SE,146,0.0,1.0,94,0.00,,,0.02,Wunderground PWS Mod,2013-05-13 11:50:00,
2013-05-13 04:59:00,53.6,51.9,29.96,SE,146,0.0,1.0,94,0.00,,,0.02,Wunderground PWS Mod,2013-05-13 11:59:00,
2013-05-13 05:09:00,53.8,52.1,29.95,SSE,148,0.0,1.0,94,0.00,,,0.02,Wunderground PWS Mod,2013-05-13 12:09:00,
2013-05-13 05:19:00,53.8,52.1,29.95,SSE,148,0.0,1.0,94,0.00,,,0.02,Wunderground PWS Mod,2013-05-13 12:19:00,
2013-05-13 05:29:00,53.8,52.1,29.95,SSE,148,0.0,1.0,94,0.00,,,0.02,Wunderground PWS Mod,2013-05-13 12:29:00,
2013-05-13 05:39:00,53.9,52.2,29.96,SSE,148,0.0,1.0,94,0.00,,,0.02,Wunderground PWS Mod,2013-05-13 12:39:00,
2013-05-13 05:50:00,53.9,52.2,29.96,SE,142,0.0,1.0,94,0.00,,,0.02,Wunderground PWS Mod,2013-05-13 12:50:00,
2013-05-13 06:00:00,53.9,52.2,29.96,SE,135,0.0,1.0,94,0.00,,,0.02,Wunderground PWS Mod,2013-05-13 13:00:00,
2013-05-13 06:10:00,53.9,52.2,29.96,ESE,117,0.0,1.0,94,0.00,,,0.03,Wunderground PWS Mod,2013-05-13 13:10:00,
2013-05-13 06:20:00,53.8,52.1,29.97,ESE,117,0.0,1.0,94,0.10,,,0.04,Wunderground PWS Mod,2013-05-13 13:20:00,
2013-05-13 06:30:00,53.5,51.8,29.97,ESE,117,0.0,1.0,94,0.06,,,0.05,Wunderground PWS Mod,2013-05-13 13:30:00,
2013-05-13 06:40:00,53.2,51.5,29.97,ESE,117,0.0,0.0,94,0.04,,,0.05,Wunderground PWS Mod,2013-05-13 13:40:00,
2013-05-13 06:50:00,53.1,51.4,29.96,ESE,117,0.0,0.0,94,0.00,,,0.05,Wunderground PWS Mod,2013-05-13 13:50:00,
2013-05-13 07:00:00,53.1,51.4,29.96,ESE,117,0.0,0.0,94,0.00,,,0.05,Wunderground PWS Mod,2013-05-13 14:00:00,
2013-05-13 07:09:00,53.1,51.4,29.96,ESE,117,0.0,1.0,94,0.00,,,0.05,Wunderground PWS Mod,2013-05-13 14:09:00,
2013-05-13 07:19:00,53.1,51.4,29.96,ESE,117,0.0,0.0,94,0.00,,,0.05,Wunderground PWS Mod,2013-05-13 14:19:00,
2013-05-13 07:29:00,53.2,51.5,29.96,ESE,117,0.0,0.0,94,0.00,,,0.05,Wunderground PWS Mod,2013-05-13 14:29:00,
2013-05-13 07:39:00,53.3,51.6,29.96,ESE,117,0.0,1.0,94,0.00,,,0.05,Wunderground PWS Mod,2013-05-13 14:39:00,
2013-05-13 07:49:00,53.5,51.8,29.96,ESE,117,0.0,1.0,94,0.00,,,0.05,Wunderground PWS Mod,2013-05-13 14:49:00,
2013-05-13 07:59:00,53.6,51.9,29.96,ESE,117,0.0,1.0,94,0.00,,,0.05,Wunderground PWS Mod,2013-05-13 14:59:00,
2013-05-13 08:09:00,53.8,52.1,29.95,ESE,117,0.0,1.0,94,0.00,,,0.05,Wunderground PWS Mod,2013-05-13 15:09:00,
2013-05-13 08:20:00,53.8,52.4,29.95,ESE,117,0.0,2.0,95,0.00,,,0.05,Wunderground PWS Mod,2013-05-13 15:20:00,
2013-05-13 08:30:00,53.9,52.5,29.95,ESE,113,0.0,1.0,95,0.00,,,0.05,Wunderground PWS Mod,2013-05-13 15:30:00,
2013-05-13 08:40:00,54.2,52.8,29.95,ESE,117,0.0,1.0,95,0.00,,,0.05,Wunderground PWS Mod,2013-05-13 15:40:00,
2013-05-13 08:50:00,54.4,53.0,29.95,ESE,117,0.0,1.0,95,0.00,,,0.05,Wunderground PWS Mod,2013-05-13 15:50:00,
2013-05-13 09:00:00,54.5,53.1,29.95,ESE,117,0.0,1.0,95,0.00,,,0.05,Wunderground PWS Mod,2013-05-13 16:00:00,
2013-05-13 09:10:00,54.5,53.1,29.95,ESE,117,0.0,1.0,95,0.00,,,0.05,Wunderground PWS Mod,2013-05-13 16:10:00,
2013-05-13 09:20:00,54.7,53.3,29.95,ESE,117,0.0,1.0,95,0.00,,,0.05,Wunderground PWS Mod,2013-05-13 16:20:00,
2013-05-13 09:29:00,54.8,53.4,29.95,ESE,117,0.0,1.0,95,0.00,,,0.05,Wunderground PWS Mod,2013-05-13 16:29:00,
2013-05-13 09:39:00,55.0,53.6,29.95,ESE,117,0.0,1.0,95,0.00,,,0.05,Wunderground PWS Mod,2013-05-13 16:39:00,
2013-05-13 09:49:00,55.3,53.9,29.94,ESE,117,0.0,0.0,95,0.00,,,0.05,Wunderground PWS Mod,2013-05-13 16:49:00,
2013-05-13 09:59:00,55.4,54.0,29.94,ESE,117,0.0,1.0,95,0.00,,,0.05,Wunderground PWS Mod,2013-05-13 16:59:00,
2013-05-13 10:09:00,55.7,54.3,29.94,ESE,117,0.0,0.0,95,0.00,,,0.05,Wunderground PWS Mod,2013-05-13 17:09:00,
2013-05-13 10:19:00,55.7,54.3,29.93,ESE,117,0.0,1.0,95,0.00,,,0.05,Wunderground PWS Mod,2013-05-13 17:19:00,
2013-05-13 10:30:00,55.7,54.3,29.93,ESE,117,0.0,1.0,95,0.00,,,0.05,Wunderground PWS Mod,2013-05-13 17:30:00,
2013-05-13 10:40:00,55.6,54.2,29.93,ESE,113,0.0,1.0,95,0.00,,,0.05,Wunderground PWS Mod,2013-05-13 17:40:00,
2013-05-13 10:50:00,55.6,54.2,29.93,NE,45,0.0,1.0,95,0.00,,,0.06,Wunderground PWS Mod,2013-05-13 17:50:00,
2013-05-13 11:00:00,55.7,54.3,29.93,NE,45,0.0,1.0,95,0.00,,,0.06,Wunderground PWS Mod,2013-05-13 18:00:00,
2013-05-13 11:10:00,56.2,54.8,29.93,East,89,0.0,2.0,95,0.00,,,0.06,Wunderground PWS Mod,2013-05-13 18:10:00,
2013-05-13 11:19:00,57.2,55.8,29.92,East,89,0.0,2.0,95,0.00,,,0.06,Wunderground PWS Mod,2013-05-13 18:19:00,
2013-05-13 11:29:00,58.4,57.0,29.92,East,82,0.0,2.0,95,0.00,,,0.06,Wunderground PWS Mod,2013-05-13 18:29:00,
2013-05-13 11:40:00,58.7,57.3,29.91,East,80,0.0,3.0,95,0.00,,,0.06,Wunderground PWS Mod,2013-05-13 18:40:00,
2013-05-13 11:49:00,58.6,57.2,29.91,East,90,0.0,2.0,95,0.01,,,0.06,Wunderground PWS Mod,2013-05-13 18:49:00,
2013-05-13 12:00:00,59.9,57.3,29.90,ESE,115,0.0,2.0,91,0.00,,,0.06,Wunderground PWS Mod,2013-05-13 19:00:00,
2013-05-13 12:09:00,59.5,56.3,29.90,ESE,106,0.0,2.0,89,0.00,,,0.06,Wunderground PWS Mod,2013-05-13 19:09:00,
2013-05-13 12:20:00,59.5,55.9,29.89,ESE,106,0.0,2.0,88,0.00,,,0.06,Wunderground PWS Mod,2013-05-13 19:20:00,
2013-05-13 12:29:00,59.3,55.7,29.89,ESE,106,0.0,0.0,88,0.00,,,0.06,Wunderground PWS Mod,2013-05-13 19:29:00,
2013-05-13 12:39:00,59.2,55.6,29.88,ESE,106,0.0,1.0,88,0.00,,,0.07,Wunderground PWS Mod,2013-05-13 19:39:00,
2013-05-13 12:49:00,59.3,55.7,29.89,ESE,106,0.0,0.0,88,0.00,,,0.07,Wunderground PWS Mod,2013-05-13 19:49:00,
2013-05-13 12:59:00,59.3,56.1,29.89,East,85,0.0,2.0,89,0.00,,,0.07,Wunderground PWS Mod,2013-05-13 19:59:00,
2013-05-13 13:09:00,59.2,55.0,29.88,NE,55,0.0,2.0,86,0.00,,,0.07,Wunderground PWS Mod,2013-05-13 20:09:00,
2013-05-13 13:49:00,57.6,52.8,29.90,NE,46,1.0,4.0,84,0.50,,,0.13,Wunderground PWS Mod,2013-05-13 20:49:00,
2013-05-13 13:59:00,55.7,50.9,29.90,ENE,70,2.0,7.0,84,0.15,,,0.16,Wunderground PWS Mod,2013-05-13 20:59:00,
2013-05-13 14:09:00,54.7,50.6,29.92,ESE,102,1.0,3.0,86,0.05,,,0.16,Wunderground PWS Mod,2013-05-13 21:09:00,
2013-05-13 14:19:00,54.2,50.7,29.93,East,101,1.0,2.0,88,0.00,,,0.16,Wunderground PWS Mod,2013-05-13 21:19:00,
2013-05-13 14:29:00,55.1,52.5,29.93,ESE,110,1.0,3.0,91,0.00,,,0.16,Wunderground PWS Mod,2013-05-13 21:29:00,
2013-05-13 14:39:00,55.6,53.3,29.93,ESE,115,1.0,3.0,92,0.00,,,0.16,Wunderground PWS Mod,2013-05-13 21:39:00,
2013-05-13 14:49:00,56.2,53.9,29.92,ESE,118,1.0,3.0,92,0.00,,,0.16,Wunderground PWS Mod,2013-05-13 21:49:00,
2013-05-13 14:59:00,55.0,52.7,29.92,ESE,119,2.0,9.0,92,0.00,,,0.16,Wunderground PWS Mod,2013-05-13 21:59:00,
2013-05-13 15:09:00,54.7,52.4,29.93,ESE,105,2.0,5.0,92,0.00,,,0.16,Wunderground PWS Mod,2013-05-13 22:09:00,
2013-05-13 15:20:00,54.1,51.5,29.94,ENE,67,2.0,5.0,91,0.00,,,0.16,Wunderground PWS Mod,2013-05-13 22:20:00,
2013-05-13 15:30:00,53.6,51.0,29.95,ENE,71,2.0,3.0,91,0.00,,,0.16,Wunderground PWS Mod,2013-05-13 22:30:00,
2013-05-13 15:40:00,53.8,51.2,29.95,ESE,104,2.0,4.0,91,0.00,,,0.16,Wunderground PWS Mod,2013-05-13 22:40:00,
2013-05-13 15:50:00,53.6,51.0,29.95,East,101,2.0,6.0,91,0.00,,,0.16,Wunderground PWS Mod,2013-05-13 22:50:00,
2013-05-13 16:00:00,53.8,50.9,29.95,East,96,2.0,4.0,90,0.00,,,0.16,Wunderground PWS Mod,2013-05-13 23:00:00,
2013-05-13 16:10:00,54.4,51.2,29.96,East,85,2.0,11.0,89,0.00,,,0.16,Wunderground PWS Mod,2013-05-13 23:10:00,
2013-05-13 16:20:00,54.1,50.6,29.95,East,92,2.0,6.0,88,0.00,,,0.17,Wunderground PWS Mod,2013-05-13 23:20:00,
2013-05-13 16:29:00,52.9,48.8,29.95,ESE,103,2.0,5.0,86,0.09,,,0.19,Wunderground PWS Mod,2013-05-13 23:29:00,
2013-05-13 16:39:00,51.7,48.3,29.97,ENE,62,2.0,5.0,88,0.05,,,0.19,Wunderground PWS Mod,2013-05-13 23:39:00,
2013-05-13 16:49:00,53.2,50.6,29.97,East,88,2.0,6.0,91,0.00,,,0.19,Wunderground PWS Mod,2013-05-13 23:49:00,
2013-05-13 16:59:00,52.2,48.8,29.97,ESE,106,2.0,6.0,88,0.00,,,0.19,Wunderground PWS Mod,2013-05-13 23:59:00,
2013-05-13 17:10:00,51.1,47.7,29.98,ENE,71,2.0,5.0,88,0.00,,,0.19,Wunderground PWS Mod,2013-05-14 00:10:00,
2013-05-13 17:20:00,51.0,47.6,29.98,ENE,68,3.0,7.0,88,0.03,,,0.19,Wunderground PWS Mod,2013-05-14 00:20:00,
2013-05-13 17:30:00,49.4,46.3,30.01,ESE,113,2.0,5.0,89,0.00,,,0.20,Wunderground PWS Mod,2013-05-14 00:30:00,
2013-05-13 17:40:00,49.2,46.7,30.01,East,82,1.0,3.0,91,0.00,,,0.20,Wunderground PWS Mod,2013-05-14 00:40:00,
2013-05-13 17:50:00,50.1,47.9,30.02,ENE,76,1.0,4.0,92,0.00,,,0.20,Wunderground PWS Mod,2013-05-14 00:50:00,
2013-05-13 18:00:00,50.1,47.6,30.02,East,97,2.0,5.0,91,0.00,,,0.20,Wunderground PWS Mod,2013-05-14 01:00:00,
2013-05-13 18:10:00,49.6,46.8,30.02,ENE,78,2.0,9.0,90,0.00,,,0.20,Wunderground PWS Mod,2013-05-14 01:10:00,
2013-05-13 18:20:00,49.5,46.4,30.03,NNE,26,2.0,6.0,89,0.00,,,0.20,Wunderground PWS Mod,2013-05-14 01:20:00,
2013-05-13 18:30:00,49.6,45.9,30.03,East,88,2.0,6.0,87,0.00,,,0.20,Wunderground PWS Mod,2013-05-14 01:30:00,
2013-05-13 18:40:00,49.6,45.6,30.05,ESE,122,2.0,4.0,86,0.00,,,0.20,Wunderground PWS Mod,2013-05-14 01:40:00,
2013-05-13 18:49:00,49.8,45.8,30.04,ESE,113,2.0,5.0,86,0.00,,,0.20,Wunderground PWS Mod,2013-05-14 01:49:00,
2013-05-13 18:59:00,49.9,45.6,30.04,ESE,117,2.0,4.0,85,0.00,,,0.20,Wunderground PWS Mod,2013-05-14 01:59:00,
2013-05-13 19:09:00,49.9,45.6,30.04,ENE,78,1.0,4.0,85,0.00,,,0.20,Wunderground PWS Mod,2013-05-14 02:09:00,
2013-05-13 19:20:00,49.9,45.6,30.06,East,83,1.0,4.0,85,0.00,,,0.20,Wunderground PWS Mod,2013-05-14 02:20:00,
2013-05-13 19:30:00,49.9,45.6,30.06,East,90,1.0,2.0,85,0.00,,,0.20,Wunderground PWS Mod,2013-05-14 02:30:00,
2013-05-13 19:40:00,49.8,44.5,30.09,ENE,61,2.0,5.0,82,0.00,,,0.20,Wunderground PWS Mod,2013-05-14 02:40:00,
2013-05-13 19:50:00,49.5,43.9,30.08,East,94,1.0,5.0,81,0.00,,,0.20,Wunderground PWS Mod,2013-05-14 02:50:00,
2013-05-13 20:00:00,49.4,44.1,30.08,East,98,1.0,3.0,82,0.00,,,0.20,Wunderground PWS Mod,2013-05-14 03:00:00,
2013-05-13 20:10:00,49.2,43.9,30.10,ESE,109,1.0,2.0,82,0.00,,,0.20,Wunderground PWS Mod,2013-05-14 03:10:00,
2013-05-13 20:20:00,48.9,43.6,30.10,ESE,105,1.0,3.0,82,0.00,,,0.20,Wunderground PWS Mod,2013-05-14 03:20:00,
2013-05-13 20:30:00,48.8,43.5,30.10,East,100,2.0,4.0,82,0.00,,,0.20,Wunderground PWS Mod,2013-05-14 03:30:00,
2013-05-13 20:40:00,48.5,42.6,30.10,ESE,117,1.0,4.0,80,0.00,,,0.20,Wunderground PWS Mod,2013-05-14 03:40:00,
2013-05-13 20:49:00,48.2,42.0,30.10,East,85,3.0,6.0,79,0.00,,,0.20,Wunderground PWS Mod,2013-05-14 03:49:00,
2013-05-13 20:59:00,48.0,41.8,30.10,ESE,116,1.0,3.0,79,0.00,,,0.20,Wunderground PWS Mod,2013-05-14 03:59:00,
2013-05-13 21:09:00,47.7,41.8,30.11,East,81,2.0,3.0,80,0.00,,,0.20,Wunderground PWS Mod,2013-05-14 04:09:00,
2013-05-13 21:19:00,47.6,41.7,30.11,ESE,113,2.0,4.0,80,0.00,,,0.20,Wunderground PWS Mod,2013-05-14 04:19:00,
2013-05-13 21:29:00,47.4,41.5,30.11,East,94,1.0,4.0,80,0.00,,,0.20,Wunderground PWS Mod,2013-05-14 04:29:00,
2013-05-13 21:39:00,47.3,41.4,30.12,ENE,73,1.0,2.0,80,0.00,,,0.20,Wunderground PWS Mod,2013-05-14 04:39:00,
2013-05-13 21:49:00,47.1,41.6,30.12,ESE,109,1.0,3.0,81,0.00,,,0.20,Wunderground PWS Mod,2013-05-14 04:49:00,
2013-05-13 21:59:00,47.1,41.6,30.12,East,95,1.0,3.0,81,0.00,,,0.20,Wunderground PWS Mod,2013-05-14 04:59:00,
2013-05-13 22:10:00,47.0,41.5,30.13,East,101,1.0,3.0,81,0.00,,,0.20,Wunderground PWS Mod,2013-05-14 05:10:00,
2013-05-13 22:20:00,47.0,41.5,30.13,East,90,1.0,3.0,81,0.00,,,0.20,Wunderground PWS Mod,2013-05-14 05:20:00,
2013-05-13 22:30:00,46.8,41.6,30.13,East,101,0.0,2.0,82,0.00,,,0.20,Wunderground PWS Mod,2013-05-14 05:30:00,
2013-05-13 22:40:00,46.8,41.6,30.13,ESE,112,0.0,2.0,82,0.00,,,0.20,Wunderground PWS Mod,2013-05-14 05:40:00,
2013-05-13 22:50:00,46.7,41.8,30.14,SE,142,0.0,1.0,83,0.00,,,0.20,Wunderground PWS Mod,2013-05-14 05:50:00,
2013-05-13 23:00:00,46.7,42.1,30.14,SE,142,0.0,1.0,84,0.00,,,0.20,Wunderground PWS Mod,2013-05-14 06:00:00,
2013-05-13 23:10:00,46.8,42.5,30.14,SE,142,0.0,2.0,85,0.00,,,0.20,Wunderground PWS Mod,2013-05-14 06:10:00,
2013-05-13 23:20:00,46.5,42.2,30.12,East,92,1.0,2.0,85,0.00,,,0.20,Wunderground PWS Mod,2013-05-14 06:20:00,
2013-05-13 23:29:00,46.2,41.6,30.12,NE,45,1.0,2.0,84,0.00,,,0.20,Wunderground PWS Mod,2013-05-14 06:29:00,
2013-05-13 23:40:00,46.2,41.6,30.13,NE,46,0.0,2.0,84,0.00,,,0.20,Wunderground PWS Mod,2013-05-14 06:40:00,
2013-05-13 23:50:00,46.0,41.7,30.13,East,88,0.0,3.0,85,0.00,,,0.20,Wunderground PWS Mod,2013-05-14 06:50:00,
2013-05-13 23:59:00,45.8,41.5,30.13,SE,140,0.0,2.0,85,0.00,,,0.20,Wunderground PWS Mod,2013-05-14 06:59:00,